sensor_id;sensor_type;location;lat;lon;timestamp;temperature;humidity
26081;DHT22;13991;51.174;4.438;2024-01-07T00:02:25;5.50;99.90
26081;DHT22;13991;51.174;4.438;2024-01-07T00:04:50;5.50;99.90
26081;DHT22;13991;51.174;4.438;2024-01-07T00:07:16;5.50;99.90
26081;DHT22;13991;51.174;4.438;2024-01-07T00:09:42;5.60;99.90
26081;DHT22;13991;51.174;4.438;2024-01-07T00:12:08;5.50;99.90
26081;DHT22;13991;51.174;4.438;2024-01-07T00:14:33;5.60;99.90
26081;DHT22;13991;51.174;4.438;2024-01-07T00:16:59;5.80;99.90
26081;DHT22;13991;51.174;4.438;2024-01-07T00:19:24;5.80;99.90
26081;DHT22;13991;51.174;4.438;2024-01-07T00:21:50;5.70;99.90
26081;DHT22;13991;51.174;4.438;2024-01-07T00:24:16;5.80;99.90
26081;DHT22;13991;51.174;4.438;2024-01-07T00:26:41;5.70;99.90
26081;DHT22;13991;51.174;4.438;2024-01-07T00:29:07;5.60;99.90
26081;DHT22;13991;51.174;4.438;2024-01-07T00:31:33;5.30;99.90
26081;DHT22;13991;51.174;4.438;2024-01-07T00:33:58;5.30;99.90
26081;DHT22;13991;51.174;4.438;2024-01-07T00:36:24;5.20;99.90
26081;DHT22;13991;51.174;4.438;2024-01-07T00:38:50;5.20;99.90
26081;DHT22;13991;51.174;4.438;2024-01-07T00:41:15;5.10;99.90
26081;DHT22;13991;51.174;4.438;2024-01-07T00:43:41;5.00;99.90
26081;DHT22;13991;51.174;4.438;2024-01-07T00:46:07;4.90;99.90
26081;DHT22;13991;51.174;4.438;2024-01-07T00:48:32;5.00;99.90
26081;DHT22;13991;51.174;4.438;2024-01-07T00:50:58;5.20;99.90
26081;DHT22;13991;51.174;4.438;2024-01-07T00:53:24;5.20;99.90
26081;DHT22;13991;51.174;4.438;2024-01-07T00:55:49;5.30;99.90
26081;DHT22;13991;51.174;4.438;2024-01-07T00:58:15;5.00;99.90
26081;DHT22;13991;51.174;4.438;2024-01-07T01:00:41;5.10;99.90
26081;DHT22;13991;51.174;4.438;2024-01-07T01:03:06;4.80;99.90
26081;DHT22;13991;51.174;4.438;2024-01-07T01:05:32;4.70;99.90
26081;DHT22;13991;51.174;4.438;2024-01-07T01:07:58;4.90;99.90
26081;DHT22;13991;51.174;4.438;2024-01-07T01:10:23;4.90;99.90
26081;DHT22;13991;51.174;4.438;2024-01-07T01:12:49;4.90;99.90
26081;DHT22;13991;51.174;4.438;2024-01-07T01:15:14;4.70;99.90
26081;DHT22;13991;51.174;4.438;2024-01-07T01:17:42;4.70;99.90
26081;DHT22;13991;51.174;4.438;2024-01-07T01:20:08;4.80;99.90
26081;DHT22;13991;51.174;4.438;2024-01-07T01:22:34;4.70;99.90
26081;DHT22;13991;51.174;4.438;2024-01-07T01:24:59;4.80;99.90
26081;DHT22;13991;51.174;4.438;2024-01-07T01:27:26;4.60;99.90
26081;DHT22;13991;51.174;4.438;2024-01-07T01:29:52;4.70;99.90
26081;DHT22;13991;51.174;4.438;2024-01-07T01:32:17;4.60;99.90
26081;DHT22;13991;51.174;4.438;2024-01-07T01:34:43;4.70;99.90
26081;DHT22;13991;51.174;4.438;2024-01-07T01:37:09;4.60;99.90
26081;DHT22;13991;51.174;4.438;2024-01-07T01:39:35;4.60;99.90
26081;DHT22;13991;51.174;4.438;2024-01-07T01:42:00;4.80;99.90
26081;DHT22;13991;51.174;4.438;2024-01-07T01:44:26;4.80;99.90
26081;DHT22;13991;51.174;4.438;2024-01-07T01:46:55;4.90;99.90
26081;DHT22;13991;51.174;4.438;2024-01-07T01:49:21;4.90;99.90
26081;DHT22;13991;51.174;4.438;2024-01-07T01:51:47;4.90;99.90
26081;DHT22;13991;51.174;4.438;2024-01-07T01:54:15;5.00;99.90
26081;DHT22;13991;51.174;4.438;2024-01-07T01:56:40;4.90;99.90
26081;DHT22;13991;51.174;4.438;2024-01-07T01:59:06;4.90;99.90
26081;DHT22;13991;51.174;4.438;2024-01-07T02:01:33;4.90;99.90
26081;DHT22;13991;51.174;4.438;2024-01-07T02:03:58;5.10;99.90
26081;DHT22;13991;51.174;4.438;2024-01-07T02:06:24;4.90;99.90
26081;DHT22;13991;51.174;4.438;2024-01-07T02:08:50;4.90;99.90
26081;DHT22;13991;51.174;4.438;2024-01-07T02:11:18;4.80;99.90
26081;DHT22;13991;51.174;4.438;2024-01-07T02:13:44;4.70;99.90
26081;DHT22;13991;51.174;4.438;2024-01-07T02:16:09;4.50;99.90
26081;DHT22;13991;51.174;4.438;2024-01-07T02:18:35;4.40;99.90
26081;DHT22;13991;51.174;4.438;2024-01-07T02:21:02;4.40;99.90
26081;DHT22;13991;51.174;4.438;2024-01-07T02:23:27;4.50;99.90
26081;DHT22;13991;51.174;4.438;2024-01-07T02:25:53;4.70;99.90
26081;DHT22;13991;51.174;4.438;2024-01-07T02:28:18;4.60;99.90
26081;DHT22;13991;51.174;4.438;2024-01-07T02:30:44;4.70;99.90
26081;DHT22;13991;51.174;4.438;2024-01-07T02:33:09;4.70;99.90
26081;DHT22;13991;51.174;4.438;2024-01-07T02:35:35;4.80;99.90
26081;DHT22;13991;51.174;4.438;2024-01-07T02:38:01;4.70;99.90
26081;DHT22;13991;51.174;4.438;2024-01-07T02:40:26;4.80;99.90
26081;DHT22;13991;51.174;4.438;2024-01-07T02:42:52;4.60;99.90
26081;DHT22;13991;51.174;4.438;2024-01-07T02:45:18;4.60;99.90
26081;DHT22;13991;51.174;4.438;2024-01-07T02:47:44;4.50;99.90
26081;DHT22;13991;51.174;4.438;2024-01-07T02:50:10;4.40;99.90
26081;DHT22;13991;51.174;4.438;2024-01-07T02:52:35;4.40;99.90
26081;DHT22;13991;51.174;4.438;2024-01-07T02:55:01;4.40;99.90
26081;DHT22;13991;51.174;4.438;2024-01-07T02:57:29;4.50;99.90
26081;DHT22;13991;51.174;4.438;2024-01-07T02:59:55;4.50;99.90
26081;DHT22;13991;51.174;4.438;2024-01-07T03:02:20;4.50;99.90
26081;DHT22;13991;51.174;4.438;2024-01-07T03:04:46;4.50;99.90
26081;DHT22;13991;51.174;4.438;2024-01-07T03:07:11;4.30;99.90
26081;DHT22;13991;51.174;4.438;2024-01-07T03:09:37;4.40;99.90
26081;DHT22;13991;51.174;4.438;2024-01-07T03:12:03;4.40;99.90
26081;DHT22;13991;51.174;4.438;2024-01-07T03:14:29;4.30;99.90
26081;DHT22;13991;51.174;4.438;2024-01-07T03:16:54;4.60;99.90
26081;DHT22;13991;51.174;4.438;2024-01-07T03:19:20;4.40;99.90
26081;DHT22;13991;51.174;4.438;2024-01-07T03:21:47;4.30;99.90
26081;DHT22;13991;51.174;4.438;2024-01-07T03:24:13;4.30;99.90
26081;DHT22;13991;51.174;4.438;2024-01-07T03:26:38;4.30;99.90
26081;DHT22;13991;51.174;4.438;2024-01-07T03:29:04;4.50;99.90
26081;DHT22;13991;51.174;4.438;2024-01-07T03:31:30;4.50;99.90
26081;DHT22;13991;51.174;4.438;2024-01-07T03:33:56;4.80;99.90
26081;DHT22;13991;51.174;4.438;2024-01-07T03:36:21;4.90;99.90
26081;DHT22;13991;51.174;4.438;2024-01-07T03:38:48;4.60;99.90
26081;DHT22;13991;51.174;4.438;2024-01-07T03:41:17;4.50;99.90
26081;DHT22;13991;51.174;4.438;2024-01-07T03:43:44;4.40;99.90
26081;DHT22;13991;51.174;4.438;2024-01-07T03:46:10;4.50;99.90
26081;DHT22;13991;51.174;4.438;2024-01-07T03:48:36;4.50;99.90
26081;DHT22;13991;51.174;4.438;2024-01-07T03:51:01;4.60;99.90
26081;DHT22;13991;51.174;4.438;2024-01-07T03:53:27;4.50;99.90
26081;DHT22;13991;51.174;4.438;2024-01-07T03:55:52;4.70;99.90
26081;DHT22;13991;51.174;4.438;2024-01-07T03:58:18;4.80;99.90
26081;DHT22;13991;51.174;4.438;2024-01-07T04:00:47;5.10;99.90
26081;DHT22;13991;51.174;4.438;2024-01-07T04:03:13;4.90;99.90
26081;DHT22;13991;51.174;4.438;2024-01-07T04:05:38;4.90;99.90
26081;DHT22;13991;51.174;4.438;2024-01-07T04:08:04;5.00;99.90
26081;DHT22;13991;51.174;4.438;2024-01-07T04:10:30;5.00;99.90
26081;DHT22;13991;51.174;4.438;2024-01-07T04:12:55;5.10;99.90
26081;DHT22;13991;51.174;4.438;2024-01-07T04:15:21;5.00;99.90
26081;DHT22;13991;51.174;4.438;2024-01-07T04:17:47;5.00;99.90
26081;DHT22;13991;51.174;4.438;2024-01-07T04:20:13;5.00;99.90
26081;DHT22;13991;51.174;4.438;2024-01-07T04:22:39;4.70;99.90
26081;DHT22;13991;51.174;4.438;2024-01-07T04:25:05;4.80;99.90
26081;DHT22;13991;51.174;4.438;2024-01-07T04:27:39;4.60;99.90
26081;DHT22;13991;51.174;4.438;2024-01-07T04:30:05;4.70;99.90
26081;DHT22;13991;51.174;4.438;2024-01-07T04:32:32;4.70;99.90
26081;DHT22;13991;51.174;4.438;2024-01-07T04:34:57;4.80;99.90
26081;DHT22;13991;51.174;4.438;2024-01-07T04:37:24;4.60;99.90
26081;DHT22;13991;51.174;4.438;2024-01-07T04:39:50;4.70;99.90
26081;DHT22;13991;51.174;4.438;2024-01-07T04:42:19;4.60;99.90
26081;DHT22;13991;51.174;4.438;2024-01-07T04:44:44;4.70;99.90
26081;DHT22;13991;51.174;4.438;2024-01-07T04:47:30;4.50;99.90
26081;DHT22;13991;51.174;4.438;2024-01-07T04:49:56;4.70;99.90
26081;DHT22;13991;51.174;4.438;2024-01-07T04:52:23;4.90;99.90
26081;DHT22;13991;51.174;4.438;2024-01-07T04:54:50;4.80;99.90
26081;DHT22;13991;51.174;4.438;2024-01-07T04:57:16;4.80;99.90
26081;DHT22;13991;51.174;4.438;2024-01-07T04:59:42;4.80;99.90
26081;DHT22;13991;51.174;4.438;2024-01-07T05:02:08;4.70;99.90
26081;DHT22;13991;51.174;4.438;2024-01-07T05:04:35;4.60;99.90
26081;DHT22;13991;51.174;4.438;2024-01-07T05:07:01;4.60;99.90
26081;DHT22;13991;51.174;4.438;2024-01-07T05:09:26;4.50;99.90
26081;DHT22;13991;51.174;4.438;2024-01-07T05:11:52;4.70;99.90
26081;DHT22;13991;51.174;4.438;2024-01-07T05:14:18;4.70;99.90
26081;DHT22;13991;51.174;4.438;2024-01-07T05:16:43;4.70;99.90
26081;DHT22;13991;51.174;4.438;2024-01-07T05:19:09;4.60;99.90
26081;DHT22;13991;51.174;4.438;2024-01-07T05:21:35;4.60;99.90
26081;DHT22;13991;51.174;4.438;2024-01-07T05:24:00;4.50;99.90
26081;DHT22;13991;51.174;4.438;2024-01-07T05:26:26;4.40;99.90
26081;DHT22;13991;51.174;4.438;2024-01-07T05:28:51;4.50;99.90
26081;DHT22;13991;51.174;4.438;2024-01-07T05:31:18;4.40;99.90
26081;DHT22;13991;51.174;4.438;2024-01-07T05:33:44;4.20;99.90
26081;DHT22;13991;51.174;4.438;2024-01-07T05:36:13;4.20;99.90
26081;DHT22;13991;51.174;4.438;2024-01-07T05:38:41;4.20;99.90
26081;DHT22;13991;51.174;4.438;2024-01-07T05:41:07;4.30;99.90
26081;DHT22;13991;51.174;4.438;2024-01-07T05:43:34;4.30;99.90
26081;DHT22;13991;51.174;4.438;2024-01-07T05:46:01;4.40;99.90
26081;DHT22;13991;51.174;4.438;2024-01-07T05:48:26;4.10;99.90
26081;DHT22;13991;51.174;4.438;2024-01-07T05:50:52;4.10;99.90
26081;DHT22;13991;51.174;4.438;2024-01-07T05:53:18;4.00;99.90
26081;DHT22;13991;51.174;4.438;2024-01-07T05:55:43;4.10;99.90
26081;DHT22;13991;51.174;4.438;2024-01-07T05:58:09;4.30;99.90
26081;DHT22;13991;51.174;4.438;2024-01-07T06:00:35;4.30;99.90
26081;DHT22;13991;51.174;4.438;2024-01-07T06:03:00;4.30;99.90
26081;DHT22;13991;51.174;4.438;2024-01-07T06:05:26;4.30;99.90
26081;DHT22;13991;51.174;4.438;2024-01-07T06:07:52;4.50;99.90
26081;DHT22;13991;51.174;4.438;2024-01-07T06:10:17;4.50;99.90
26081;DHT22;13991;51.174;4.438;2024-01-07T06:12:43;4.50;99.90
26081;DHT22;13991;51.174;4.438;2024-01-07T06:15:09;4.50;99.90
26081;DHT22;13991;51.174;4.438;2024-01-07T06:17:34;4.30;99.90
26081;DHT22;13991;51.174;4.438;2024-01-07T06:20:00;4.20;99.90
26081;DHT22;13991;51.174;4.438;2024-01-07T06:22:26;4.20;99.90
26081;DHT22;13991;51.174;4.438;2024-01-07T06:24:51;4.20;99.90
26081;DHT22;13991;51.174;4.438;2024-01-07T06:27:17;4.10;99.90
26081;DHT22;13991;51.174;4.438;2024-01-07T06:29:43;4.10;99.90
26081;DHT22;13991;51.174;4.438;2024-01-07T06:32:09;4.00;99.90
26081;DHT22;13991;51.174;4.438;2024-01-07T06:34:35;4.10;99.90
26081;DHT22;13991;51.174;4.438;2024-01-07T06:37:01;4.10;99.90
26081;DHT22;13991;51.174;4.438;2024-01-07T06:39:27;4.20;99.90
26081;DHT22;13991;51.174;4.438;2024-01-07T06:41:53;4.30;99.90
26081;DHT22;13991;51.174;4.438;2024-01-07T06:44:18;4.30;99.90
26081;DHT22;13991;51.174;4.438;2024-01-07T06:46:44;4.20;99.90
26081;DHT22;13991;51.174;4.438;2024-01-07T06:49:10;4.00;99.90
26081;DHT22;13991;51.174;4.438;2024-01-07T06:51:35;4.00;99.90
26081;DHT22;13991;51.174;4.438;2024-01-07T06:54:01;4.10;99.90
26081;DHT22;13991;51.174;4.438;2024-01-07T06:56:27;4.10;99.90
26081;DHT22;13991;51.174;4.438;2024-01-07T06:58:52;4.10;99.90
26081;DHT22;13991;51.174;4.438;2024-01-07T07:01:21;4.20;99.90
26081;DHT22;13991;51.174;4.438;2024-01-07T07:03:50;4.30;99.90
26081;DHT22;13991;51.174;4.438;2024-01-07T07:06:16;4.20;99.90
26081;DHT22;13991;51.174;4.438;2024-01-07T07:08:42;4.10;99.90
26081;DHT22;13991;51.174;4.438;2024-01-07T07:11:08;4.10;99.90
26081;DHT22;13991;51.174;4.438;2024-01-07T07:13:33;4.10;99.90
26081;DHT22;13991;51.174;4.438;2024-01-07T07:16:00;4.10;99.90
26081;DHT22;13991;51.174;4.438;2024-01-07T07:18:25;4.20;99.90
26081;DHT22;13991;51.174;4.438;2024-01-07T07:20:52;4.10;99.90
26081;DHT22;13991;51.174;4.438;2024-01-07T07:23:18;4.00;99.90
26081;DHT22;13991;51.174;4.438;2024-01-07T07:25:43;4.00;99.90
26081;DHT22;13991;51.174;4.438;2024-01-07T07:28:09;3.90;99.90
26081;DHT22;13991;51.174;4.438;2024-01-07T07:30:35;4.00;99.90
26081;DHT22;13991;51.174;4.438;2024-01-07T07:33:00;4.10;99.90
26081;DHT22;13991;51.174;4.438;2024-01-07T07:35:27;4.00;99.90
26081;DHT22;13991;51.174;4.438;2024-01-07T07:37:55;3.90;99.90
26081;DHT22;13991;51.174;4.438;2024-01-07T07:40:21;4.00;99.90
26081;DHT22;13991;51.174;4.438;2024-01-07T07:42:46;3.80;99.90
26081;DHT22;13991;51.174;4.438;2024-01-07T07:45:12;3.80;99.90
26081;DHT22;13991;51.174;4.438;2024-01-07T07:47:38;4.00;99.90
26081;DHT22;13991;51.174;4.438;2024-01-07T07:50:07;4.00;99.90
26081;DHT22;13991;51.174;4.438;2024-01-07T07:52:33;4.10;99.90
26081;DHT22;13991;51.174;4.438;2024-01-07T07:54:58;4.20;99.90
26081;DHT22;13991;51.174;4.438;2024-01-07T07:57:24;4.40;99.90
26081;DHT22;13991;51.174;4.438;2024-01-07T07:59:50;4.50;99.90
26081;DHT22;13991;51.174;4.438;2024-01-07T08:02:16;4.40;99.90
26081;DHT22;13991;51.174;4.438;2024-01-07T08:04:43;4.30;99.90
26081;DHT22;13991;51.174;4.438;2024-01-07T08:07:09;4.20;99.90
26081;DHT22;13991;51.174;4.438;2024-01-07T08:09:35;4.40;99.90
26081;DHT22;13991;51.174;4.438;2024-01-07T08:12:05;4.60;99.90
26081;DHT22;13991;51.174;4.438;2024-01-07T08:14:31;4.60;99.90
26081;DHT22;13991;51.174;4.438;2024-01-07T08:16:57;4.60;99.90
26081;DHT22;13991;51.174;4.438;2024-01-07T08:19:23;4.40;99.90
26081;DHT22;13991;51.174;4.438;2024-01-07T08:21:48;4.40;99.90
26081;DHT22;13991;51.174;4.438;2024-01-07T08:24:14;4.50;99.90
26081;DHT22;13991;51.174;4.438;2024-01-07T08:26:40;4.40;99.90
26081;DHT22;13991;51.174;4.438;2024-01-07T08:29:06;4.30;99.90
26081;DHT22;13991;51.174;4.438;2024-01-07T08:31:31;4.30;99.90
26081;DHT22;13991;51.174;4.438;2024-01-07T08:33:57;4.00;99.90
26081;DHT22;13991;51.174;4.438;2024-01-07T08:36:23;3.90;99.90
26081;DHT22;13991;51.174;4.438;2024-01-07T08:38:48;3.90;99.90
26081;DHT22;13991;51.174;4.438;2024-01-07T08:41:18;4.00;99.90
26081;DHT22;13991;51.174;4.438;2024-01-07T08:43:43;4.10;99.90
26081;DHT22;13991;51.174;4.438;2024-01-07T08:46:10;4.10;99.90
26081;DHT22;13991;51.174;4.438;2024-01-07T08:48:36;4.10;99.90
26081;DHT22;13991;51.174;4.438;2024-01-07T08:51:02;4.30;99.90
26081;DHT22;13991;51.174;4.438;2024-01-07T08:53:28;4.40;99.90
26081;DHT22;13991;51.174;4.438;2024-01-07T08:55:54;4.40;99.90
26081;DHT22;13991;51.174;4.438;2024-01-07T08:58:20;4.20;99.90
26081;DHT22;13991;51.174;4.438;2024-01-07T09:00:45;4.30;99.90
26081;DHT22;13991;51.174;4.438;2024-01-07T09:03:11;4.40;99.90
26081;DHT22;13991;51.174;4.438;2024-01-07T09:05:37;4.40;99.90
26081;DHT22;13991;51.174;4.438;2024-01-07T09:08:03;4.50;99.90
26081;DHT22;13991;51.174;4.438;2024-01-07T09:10:28;4.60;99.90
26081;DHT22;13991;51.174;4.438;2024-01-07T09:12:54;4.70;99.90
26081;DHT22;13991;51.174;4.438;2024-01-07T09:15:20;4.70;99.90
26081;DHT22;13991;51.174;4.438;2024-01-07T09:17:46;4.50;99.90
26081;DHT22;13991;51.174;4.438;2024-01-07T09:20:12;4.30;99.90
26081;DHT22;13991;51.174;4.438;2024-01-07T09:22:38;4.10;99.90
26081;DHT22;13991;51.174;4.438;2024-01-07T09:25:05;4.10;99.90
26081;DHT22;13991;51.174;4.438;2024-01-07T09:27:32;4.10;99.90
26081;DHT22;13991;51.174;4.438;2024-01-07T09:29:58;3.80;99.90
26081;DHT22;13991;51.174;4.438;2024-01-07T09:32:23;3.70;99.90
26081;DHT22;13991;51.174;4.438;2024-01-07T09:34:49;3.70;99.90
26081;DHT22;13991;51.174;4.438;2024-01-07T09:37:15;3.60;99.90
26081;DHT22;13991;51.174;4.438;2024-01-07T09:39:41;3.50;99.90
26081;DHT22;13991;51.174;4.438;2024-01-07T09:42:16;3.50;99.90
26081;DHT22;13991;51.174;4.438;2024-01-07T09:44:43;3.50;99.90
26081;DHT22;13991;51.174;4.438;2024-01-07T09:47:11;3.50;99.90
26081;DHT22;13991;51.174;4.438;2024-01-07T09:49:38;3.60;99.90
26081;DHT22;13991;51.174;4.438;2024-01-07T09:52:05;3.70;99.90
26081;DHT22;13991;51.174;4.438;2024-01-07T09:54:31;3.60;99.90
26081;DHT22;13991;51.174;4.438;2024-01-07T09:57:02;3.60;99.90
26081;DHT22;13991;51.174;4.438;2024-01-07T09:59:29;3.90;99.90
26081;DHT22;13991;51.174;4.438;2024-01-07T10:01:55;4.10;99.90
26081;DHT22;13991;51.174;4.438;2024-01-07T10:04:21;3.90;99.90
26081;DHT22;13991;51.174;4.438;2024-01-07T10:06:47;3.80;99.90
26081;DHT22;13991;51.174;4.438;2024-01-07T10:09:15;4.00;99.90
26081;DHT22;13991;51.174;4.438;2024-01-07T10:11:41;4.00;99.90
26081;DHT22;13991;51.174;4.438;2024-01-07T10:14:06;3.90;99.90
26081;DHT22;13991;51.174;4.438;2024-01-07T10:16:32;3.70;99.90
26081;DHT22;13991;51.174;4.438;2024-01-07T10:18:58;3.80;99.90
26081;DHT22;13991;51.174;4.438;2024-01-07T10:21:24;3.60;99.90
26081;DHT22;13991;51.174;4.438;2024-01-07T10:23:50;3.50;99.90
26081;DHT22;13991;51.174;4.438;2024-01-07T10:26:16;3.40;99.90
26081;DHT22;13991;51.174;4.438;2024-01-07T10:28:42;3.80;99.90
26081;DHT22;13991;51.174;4.438;2024-01-07T10:31:09;3.60;99.90
26081;DHT22;13991;51.174;4.438;2024-01-07T10:33:34;3.40;99.90
26081;DHT22;13991;51.174;4.438;2024-01-07T10:36:06;3.60;99.90
26081;DHT22;13991;51.174;4.438;2024-01-07T10:38:32;3.30;99.90
26081;DHT22;13991;51.174;4.438;2024-01-07T10:41:01;3.20;99.90
26081;DHT22;13991;51.174;4.438;2024-01-07T10:43:30;3.30;99.90
26081;DHT22;13991;51.174;4.438;2024-01-07T10:46:00;3.20;99.90
26081;DHT22;13991;51.174;4.438;2024-01-07T10:48:30;3.20;99.90
26081;DHT22;13991;51.174;4.438;2024-01-07T10:50:59;3.20;99.90
26081;DHT22;13991;51.174;4.438;2024-01-07T10:53:28;3.20;99.90
26081;DHT22;13991;51.174;4.438;2024-01-07T10:56:02;3.30;99.90
26081;DHT22;13991;51.174;4.438;2024-01-07T10:58:32;3.40;99.90
26081;DHT22;13991;51.174;4.438;2024-01-07T11:01:02;3.50;99.90
26081;DHT22;13991;51.174;4.438;2024-01-07T11:03:36;3.50;99.90
26081;DHT22;13991;51.174;4.438;2024-01-07T11:06:31;3.60;99.90
26081;DHT22;13991;51.174;4.438;2024-01-07T11:09:02;3.50;99.90
26081;DHT22;13991;51.174;4.438;2024-01-07T11:11:41;3.40;99.90
26081;DHT22;13991;51.174;4.438;2024-01-07T11:17:02;3.50;99.90
26081;DHT22;13991;51.174;4.438;2024-01-07T11:19:29;3.40;99.90
26081;DHT22;13991;51.174;4.438;2024-01-07T11:22:23;3.40;99.90
26081;DHT22;13991;51.174;4.438;2024-01-07T11:24:54;3.50;99.90
26081;DHT22;13991;51.174;4.438;2024-01-07T11:27:22;3.70;99.90
26081;DHT22;13991;51.174;4.438;2024-01-07T11:30:07;3.80;99.90
26081;DHT22;13991;51.174;4.438;2024-01-07T11:32:34;3.80;99.90
26081;DHT22;13991;51.174;4.438;2024-01-07T11:35:00;3.70;99.90
26081;DHT22;13991;51.174;4.438;2024-01-07T11:37:26;3.70;99.90
26081;DHT22;13991;51.174;4.438;2024-01-07T11:39:56;3.80;99.90
26081;DHT22;13991;51.174;4.438;2024-01-07T11:42:23;3.60;99.90
26081;DHT22;13991;51.174;4.438;2024-01-07T11:44:52;3.70;99.90
26081;DHT22;13991;51.174;4.438;2024-01-07T11:47:19;3.90;99.90
26081;DHT22;13991;51.174;4.438;2024-01-07T11:49:45;3.80;99.90
26081;DHT22;13991;51.174;4.438;2024-01-07T11:52:12;3.70;99.90
26081;DHT22;13991;51.174;4.438;2024-01-07T11:54:38;3.40;99.90
26081;DHT22;13991;51.174;4.438;2024-01-07T11:57:08;3.30;99.90
26081;DHT22;13991;51.174;4.438;2024-01-07T11:59:35;3.30;99.90
26081;DHT22;13991;51.174;4.438;2024-01-07T12:02:02;3.40;99.90
26081;DHT22;13991;51.174;4.438;2024-01-07T12:04:33;3.30;99.90
26081;DHT22;13991;51.174;4.438;2024-01-07T12:06:59;3.30;99.90
26081;DHT22;13991;51.174;4.438;2024-01-07T12:09:25;3.30;99.90
26081;DHT22;13991;51.174;4.438;2024-01-07T12:11:51;3.20;99.90
26081;DHT22;13991;51.174;4.438;2024-01-07T12:14:17;3.30;99.90
26081;DHT22;13991;51.174;4.438;2024-01-07T12:16:45;3.30;99.90
26081;DHT22;13991;51.174;4.438;2024-01-07T12:19:12;3.40;99.90
26081;DHT22;13991;51.174;4.438;2024-01-07T12:21:38;3.50;99.90
26081;DHT22;13991;51.174;4.438;2024-01-07T12:24:04;3.50;99.90
26081;DHT22;13991;51.174;4.438;2024-01-07T12:26:30;3.50;99.90
26081;DHT22;13991;51.174;4.438;2024-01-07T12:28:59;3.60;99.90
26081;DHT22;13991;51.174;4.438;2024-01-07T12:31:30;3.70;99.90
26081;DHT22;13991;51.174;4.438;2024-01-07T12:33:56;3.70;99.90
26081;DHT22;13991;51.174;4.438;2024-01-07T12:36:22;3.70;99.90
26081;DHT22;13991;51.174;4.438;2024-01-07T12:38:49;3.50;99.90
26081;DHT22;13991;51.174;4.438;2024-01-07T12:41:17;3.30;99.90
26081;DHT22;13991;51.174;4.438;2024-01-07T12:43:43;3.40;99.90
26081;DHT22;13991;51.174;4.438;2024-01-07T12:46:08;3.40;99.90
26081;DHT22;13991;51.174;4.438;2024-01-07T12:48:34;3.50;99.90
26081;DHT22;13991;51.174;4.438;2024-01-07T12:51:00;3.30;99.90
26081;DHT22;13991;51.174;4.438;2024-01-07T12:53:26;3.20;99.90
26081;DHT22;13991;51.174;4.438;2024-01-07T12:55:52;3.20;99.90
26081;DHT22;13991;51.174;4.438;2024-01-07T12:58:18;3.40;99.90
26081;DHT22;13991;51.174;4.438;2024-01-07T13:00:44;3.40;99.90
26081;DHT22;13991;51.174;4.438;2024-01-07T13:03:13;3.40;99.90
26081;DHT22;13991;51.174;4.438;2024-01-07T13:05:45;3.50;99.90
26081;DHT22;13991;51.174;4.438;2024-01-07T13:08:12;3.50;99.90
26081;DHT22;13991;51.174;4.438;2024-01-07T13:10:38;3.20;99.90
26081;DHT22;13991;51.174;4.438;2024-01-07T13:13:07;3.10;99.90
26081;DHT22;13991;51.174;4.438;2024-01-07T13:15:35;3.20;99.90
26081;DHT22;13991;51.174;4.438;2024-01-07T13:18:01;3.30;99.90
26081;DHT22;13991;51.174;4.438;2024-01-07T13:20:26;3.50;99.90
26081;DHT22;13991;51.174;4.438;2024-01-07T13:22:52;3.60;99.90
26081;DHT22;13991;51.174;4.438;2024-01-07T13:25:18;3.50;99.90
26081;DHT22;13991;51.174;4.438;2024-01-07T13:27:44;3.50;99.90
26081;DHT22;13991;51.174;4.438;2024-01-07T13:30:09;3.60;99.90
26081;DHT22;13991;51.174;4.438;2024-01-07T13:32:35;3.60;99.90
26081;DHT22;13991;51.174;4.438;2024-01-07T13:35:05;3.60;99.90
26081;DHT22;13991;51.174;4.438;2024-01-07T13:37:31;3.50;99.90
26081;DHT22;13991;51.174;4.438;2024-01-07T13:39:57;3.50;99.90
26081;DHT22;13991;51.174;4.438;2024-01-07T13:42:22;3.60;99.90
26081;DHT22;13991;51.174;4.438;2024-01-07T13:44:48;3.50;99.90
26081;DHT22;13991;51.174;4.438;2024-01-07T13:47:14;3.50;99.90
26081;DHT22;13991;51.174;4.438;2024-01-07T13:49:41;3.50;99.90
26081;DHT22;13991;51.174;4.438;2024-01-07T13:52:06;3.50;99.90
26081;DHT22;13991;51.174;4.438;2024-01-07T13:54:32;3.60;99.90
26081;DHT22;13991;51.174;4.438;2024-01-07T13:56:58;3.80;99.90
26081;DHT22;13991;51.174;4.438;2024-01-07T13:59:25;4.00;99.90
26081;DHT22;13991;51.174;4.438;2024-01-07T14:01:51;3.80;99.90
26081;DHT22;13991;51.174;4.438;2024-01-07T14:04:17;3.80;99.90
26081;DHT22;13991;51.174;4.438;2024-01-07T14:06:43;3.70;99.90
26081;DHT22;13991;51.174;4.438;2024-01-07T14:09:09;3.60;99.90
26081;DHT22;13991;51.174;4.438;2024-01-07T14:11:35;3.30;99.90
26081;DHT22;13991;51.174;4.438;2024-01-07T14:14:01;3.20;99.90
26081;DHT22;13991;51.174;4.438;2024-01-07T14:16:27;3.30;99.90
26081;DHT22;13991;51.174;4.438;2024-01-07T14:18:53;3.40;99.90
26081;DHT22;13991;51.174;4.438;2024-01-07T14:21:19;3.30;99.90
26081;DHT22;13991;51.174;4.438;2024-01-07T14:23:45;3.30;99.90
26081;DHT22;13991;51.174;4.438;2024-01-07T14:26:11;3.30;99.90
26081;DHT22;13991;51.174;4.438;2024-01-07T14:28:36;3.30;99.90
26081;DHT22;13991;51.174;4.438;2024-01-07T14:31:02;3.30;99.90
26081;DHT22;13991;51.174;4.438;2024-01-07T14:33:29;3.50;99.90
26081;DHT22;13991;51.174;4.438;2024-01-07T14:35:54;3.50;99.90
26081;DHT22;13991;51.174;4.438;2024-01-07T14:38:20;3.40;99.90
26081;DHT22;13991;51.174;4.438;2024-01-07T14:40:47;3.30;99.90
26081;DHT22;13991;51.174;4.438;2024-01-07T14:43:13;3.30;99.90
26081;DHT22;13991;51.174;4.438;2024-01-07T14:45:39;3.20;99.90
26081;DHT22;13991;51.174;4.438;2024-01-07T14:48:05;3.20;99.90
26081;DHT22;13991;51.174;4.438;2024-01-07T14:50:31;3.10;99.90
26081;DHT22;13991;51.174;4.438;2024-01-07T14:52:56;3.00;99.90
26081;DHT22;13991;51.174;4.438;2024-01-07T14:55:23;2.90;99.90
26081;DHT22;13991;51.174;4.438;2024-01-07T14:57:49;3.10;99.90
26081;DHT22;13991;51.174;4.438;2024-01-07T15:00:15;2.90;99.90
26081;DHT22;13991;51.174;4.438;2024-01-07T15:02:40;3.00;99.90
26081;DHT22;13991;51.174;4.438;2024-01-07T15:05:06;3.20;99.90
26081;DHT22;13991;51.174;4.438;2024-01-07T15:07:32;3.10;99.90
26081;DHT22;13991;51.174;4.438;2024-01-07T15:09:58;2.90;99.90
26081;DHT22;13991;51.174;4.438;2024-01-07T15:12:25;2.90;99.90
26081;DHT22;13991;51.174;4.438;2024-01-07T15:14:51;3.00;99.90
26081;DHT22;13991;51.174;4.438;2024-01-07T15:17:16;2.90;99.90
26081;DHT22;13991;51.174;4.438;2024-01-07T15:19:45;3.00;99.90
26081;DHT22;13991;51.174;4.438;2024-01-07T15:22:11;3.00;99.90
26081;DHT22;13991;51.174;4.438;2024-01-07T15:24:38;2.90;99.90
26081;DHT22;13991;51.174;4.438;2024-01-07T15:27:04;2.90;99.90
26081;DHT22;13991;51.174;4.438;2024-01-07T15:29:29;2.80;99.90
26081;DHT22;13991;51.174;4.438;2024-01-07T15:31:55;2.80;99.90
26081;DHT22;13991;51.174;4.438;2024-01-07T15:34:22;2.70;99.90
26081;DHT22;13991;51.174;4.438;2024-01-07T15:36:47;2.70;99.90
26081;DHT22;13991;51.174;4.438;2024-01-07T15:39:13;2.90;99.90
26081;DHT22;13991;51.174;4.438;2024-01-07T15:41:39;2.80;99.90
26081;DHT22;13991;51.174;4.438;2024-01-07T15:44:04;3.00;99.90